PWSweather.com
Personal Weather Stations
Station Observations
KNCCHINA3
Red Tractor Trail, China Grove, NC 28023

Red Tractor TrailChina Grove, NC 28023

Lat: 35.59751, Lon: -80.60201

Elevation: 800

Station Type: Oregon Scientific WMR 968

http://www.joesweathergarage.com

High Low Average
Temperature 63.0°F17.2°F 38.8°F3.8°F 48.0°F8.9°F
Dew Point 63.0°F17.2°F 26.7°F-2.9°F 43.1°F6.2°F
Winds 9.5 mph SE15.3 mph SE Calm Calm 3.0 mph 4.8 mph
Wind Gusts 17.0 mph27.4 mph -- 5.6 mph9.0 mph
Humidity 100% 54% 84%
Pressure 30.33 in1027.10 in 29.74 in1007.10 in -
Precipitation 8.10 in205.70 in - -
Hour Temp Dew Point Humidity Winds Wind Gusts Pressure Precip Precip Rate Daily Precip Total
12:03 AM 39.2°F4.0°C 26.7°F-2.9°C 61% Calm Calm -- 30.33 in1027.1 mb 0.00 in0.0 mm 0.00 in/hr0.0 mm/hr 0.00 in0.0 mm
12:08 AM 39.4°F4.1°C 27.4°F-2.6°C 62% Calm Calm -- 30.33 in1027.1 mb 0.00 in0.0 mm 0.00 in/hr0.0 mm/hr 0.00 in0.0 mm
12:13 AM 39.6°F4.2°C 27.6°F-2.4°C 62% Calm Calm -- 30.33 in1027.1 mb 0.00 in0.0 mm 0.00 in/hr0.0 mm/hr 0.00 in0.0 mm
12:19 AM 39.6°F4.2°C 28.0°F-2.2°C 63% Calm Calm -- 30.33 in1027.1 mb 0.00 in0.0 mm 0.00 in/hr0.0 mm/hr 0.00 in0.0 mm
12:24 AM 39.4°F4.1°C 27.8°F-2.3°C 63% Calm Calm -- 30.33 in1027.1 mb 0.00 in0.0 mm 0.00 in/hr0.0 mm/hr 0.00 in0.0 mm
12:30 AM 39.4°F4.1°C 27.8°F-2.3°C 63% Calm Calm -- 30.33 in1027.1 mb 0.00 in0.0 mm 0.00 in/hr0.0 mm/hr 0.00 in0.0 mm
12:35 AM 39.2°F4.0°C 27.6°F-2.4°C 63% Calm Calm -- 30.33 in1027.1 mb 0.00 in0.0 mm 0.00 in/hr0.0 mm/hr 0.00 in0.0 mm
12:40 AM 39.2°F4.0°C 27.6°F-2.4°C 63% Calm Calm -- 30.30 in1026.1 mb 0.00 in0.0 mm 0.00 in/hr0.0 mm/hr 0.00 in0.0 mm
12:45 AM 39.2°F4.0°C 28.0°F-2.2°C 64% Calm Calm -- 30.30 in1026.1 mb 0.00 in0.0 mm 0.00 in/hr0.0 mm/hr 0.00 in0.0 mm
12:51 AM 39.0°F3.9°C 27.9°F-2.3°C 64% Calm Calm -- 30.30 in1026.1 mb 0.00 in0.0 mm 0.00 in/hr0.0 mm/hr 0.00 in0.0 mm
12:56 AM 38.8°F3.8°C 27.7°F-2.4°C 64% 3.5 mph ESE5.6 kmh ESE 4.0 mph6.4 kmh 30.27 in1025.1 mb 0.00 in0.0 mm 0.00 in/hr0.0 mm/hr 0.00 in0.0 mm
01:02 AM 38.8°F3.8°C 27.7°F-2.4°C 64% Calm Calm 4.0 mph6.4 kmh 30.27 in1025.1 mb 0.00 in0.0 mm 0.00 in/hr0.0 mm/hr 0.00 in0.0 mm
01:06 AM 38.8°F3.8°C 27.2°F-2.7°C 63% Calm Calm 2.6 mph4.2 kmh 30.27 in1025.1 mb 0.00 in0.0 mm 0.00 in/hr0.0 mm/hr 0.00 in0.0 mm
01:12 AM 38.8°F3.8°C 27.7°F-2.4°C 64% Calm Calm -- 30.30 in1026.1 mb 0.00 in0.0 mm 0.00 in/hr0.0 mm/hr 0.00 in0.0 mm
01:16 AM 39.0°F3.9°C 27.4°F-2.6°C 63% Calm Calm -- 30.30 in1026.1 mb 0.00 in0.0 mm 0.00 in/hr0.0 mm/hr 0.00 in0.0 mm
01:21 AM 39.2°F4.0°C 27.6°F-2.4°C 63% Calm Calm -- 30.30 in1026.1 mb 0.00 in0.0 mm 0.00 in/hr0.0 mm/hr 0.00 in0.0 mm
01:26 AM 39.2°F4.0°C 28.0°F-2.2°C 64% Calm Calm -- 30.33 in1027.1 mb 0.00 in0.0 mm 0.00 in/hr0.0 mm/hr 0.00 in0.0 mm
01:31 AM 39.4°F4.1°C 28.2°F-2.1°C 64% Calm Calm -- 30.33 in1027.1 mb 0.00 in0.0 mm 0.00 in/hr0.0 mm/hr 0.00 in0.0 mm
01:37 AM 39.4°F4.1°C 28.7°F-1.8°C 65% Calm Calm -- 30.33 in1027.1 mb 0.00 in0.0 mm 0.00 in/hr0.0 mm/hr 0.00 in0.0 mm
01:42 AM 39.6°F4.2°C 28.8°F-1.8°C 65% Calm Calm -- 30.30 in1026.1 mb 0.00 in0.0 mm 0.00 in/hr0.0 mm/hr 0.00 in0.0 mm
01:47 AM 39.7°F4.3°C 28.9°F-1.7°C 65% Calm Calm -- 30.30 in1026.1 mb 0.00 in0.0 mm 0.00 in/hr0.0 mm/hr 0.00 in0.0 mm
01:54 AM 39.9°F4.4°C 29.1°F-1.6°C 65% Calm Calm -- 30.30 in1026.1 mb 0.00 in0.0 mm 0.00 in/hr0.0 mm/hr 0.00 in0.0 mm
01:59 AM 39.9°F4.4°C 28.7°F-1.8°C 64% Calm Calm -- 30.30 in1026.1 mb 0.00 in0.0 mm 0.00 in/hr0.0 mm/hr 0.00 in0.0 mm
02:04 AM 40.1°F4.5°C 29.3°F-1.5°C 65% Calm Calm -- 30.30 in1026.1 mb 0.00 in0.0 mm 0.00 in/hr0.0 mm/hr 0.00 in0.0 mm
02:09 AM 40.1°F4.5°C 29.3°F-1.5°C 65% Calm Calm -- 30.30 in1026.1 mb 0.00 in0.0 mm 0.00 in/hr0.0 mm/hr 0.00 in0.0 mm
02:14 AM 40.3°F4.6°C 29.1°F-1.6°C 64% Calm Calm -- 30.30 in1026.1 mb 0.00 in0.0 mm 0.00 in/hr0.0 mm/hr 0.00 in0.0 mm
02:19 AM 40.3°F4.6°C 29.5°F-1.4°C 65% Calm Calm -- 30.30 in1026.1 mb 0.00 in0.0 mm 0.00 in/hr0.0 mm/hr 0.00 in0.0 mm
02:24 AM 40.3°F4.6°C 29.5°F-1.4°C 65% Calm Calm -- 30.30 in1026.1 mb 0.00 in0.0 mm 0.00 in/hr0.0 mm/hr 0.00 in0.0 mm
02:29 AM 40.3°F4.6°C 29.9°F-1.2°C 66% Calm Calm -- 30.30 in1026.1 mb 0.00 in0.0 mm 0.00 in/hr0.0 mm/hr 0.00 in0.0 mm
02:34 AM 40.3°F4.6°C 29.9°F-1.2°C 66% Calm Calm -- 30.30 in1026.1 mb 0.00 in0.0 mm 0.00 in/hr0.0 mm/hr 0.00 in0.0 mm
02:39 AM 40.3°F4.6°C 29.5°F-1.4°C 65% Calm Calm -- 30.30 in1026.1 mb 0.00 in0.0 mm 0.00 in/hr0.0 mm/hr 0.00 in0.0 mm
02:44 AM 40.3°F4.6°C 29.5°F-1.4°C 65% Calm Calm -- 30.27 in1025.1 mb 0.00 in0.0 mm 0.00 in/hr0.0 mm/hr 0.00 in0.0 mm
02:49 AM 40.3°F4.6°C 29.9°F-1.2°C 66% Calm Calm -- 30.27 in1025.1 mb 0.00 in0.0 mm 0.00 in/hr0.0 mm/hr 0.00 in0.0 mm
02:54 AM 40.3°F4.6°C 29.5°F-1.4°C 65% Calm Calm -- 30.27 in1025.1 mb 0.00 in0.0 mm 0.00 in/hr0.0 mm/hr 0.00 in0.0 mm
02:59 AM 40.3°F4.6°C 29.5°F-1.4°C 65% Calm Calm -- 30.27 in1025.1 mb 0.00 in0.0 mm 0.00 in/hr0.0 mm/hr 0.00 in0.0 mm
03:05 AM 40.3°F4.6°C 29.9°F-1.2°C 66% Calm Calm -- 30.27 in1025.1 mb 0.00 in0.0 mm 0.00 in/hr0.0 mm/hr 0.00 in0.0 mm
03:10 AM 40.3°F4.6°C 30.3°F-0.9°C 67% Calm Calm -- 30.27 in1025.1 mb 0.00 in0.0 mm 0.00 in/hr0.0 mm/hr 0.00 in0.0 mm
03:15 AM 40.3°F4.6°C 30.3°F-0.9°C 67% Calm Calm -- 30.27 in1025.1 mb 0.00 in0.0 mm 0.00 in/hr0.0 mm/hr 0.00 in0.0 mm
03:20 AM 40.3°F4.6°C 30.3°F-0.9°C 67% Calm Calm -- 30.27 in1025.1 mb 0.00 in0.0 mm 0.00 in/hr0.0 mm/hr 0.00 in0.0 mm
03:25 AM 40.5°F4.7°C 30.9°F-0.6°C 68% Calm Calm -- 30.27 in1025.1 mb 0.00 in0.0 mm 0.00 in/hr0.0 mm/hr 0.00 in0.0 mm
03:30 AM 40.5°F4.7°C 30.9°F-0.6°C 68% Calm Calm -- 30.27 in1025.1 mb 0.00 in0.0 mm 0.00 in/hr0.0 mm/hr 0.00 in0.0 mm
03:35 AM 40.5°F4.7°C 30.5°F-0.8°C 67% Calm Calm -- 30.27 in1025.1 mb 0.00 in0.0 mm 0.00 in/hr0.0 mm/hr 0.00 in0.0 mm
03:40 AM 40.5°F4.7°C 30.5°F-0.8°C 67% Calm Calm -- 30.27 in1025.1 mb 0.00 in0.0 mm 0.00 in/hr0.0 mm/hr 0.00 in0.0 mm
03:45 AM 40.6°F4.8°C 31.0°F-0.6°C 68% Calm Calm -- 30.27 in1025.1 mb 0.00 in0.0 mm 0.00 in/hr0.0 mm/hr 0.00 in0.0 mm
03:50 AM 40.6°F4.8°C 31.0°F-0.6°C 68% Calm Calm -- 30.27 in1025.1 mb 0.00 in0.0 mm 0.00 in/hr0.0 mm/hr 0.00 in0.0 mm
03:55 AM 40.8°F4.9°C 30.8°F-0.7°C 67% Calm Calm -- 30.27 in1025.1 mb 0.00 in0.0 mm 0.00 in/hr0.0 mm/hr 0.00 in0.0 mm
04:00 AM 41.0°F5.0°C 31.0°F-0.6°C 67% Calm Calm -- 30.24 in1024.0 mb 0.00 in0.0 mm 0.00 in/hr0.0 mm/hr 0.00 in0.0 mm
04:07 AM 41.2°F5.1°C 31.2°F-0.4°C 67% Calm Calm -- 30.24 in1024.0 mb 0.00 in0.0 mm 0.00 in/hr0.0 mm/hr 0.00 in0.0 mm
04:12 AM 41.5°F5.3°C 31.9°F-0.1°C 68% Calm Calm -- 30.27 in1025.1 mb 0.00 in0.0 mm 0.00 in/hr0.0 mm/hr 0.00 in0.0 mm
04:18 AM 41.7°F5.4°C 31.3°F-0.4°C 66% Calm Calm 2.2 mph3.5 kmh 30.27 in1025.1 mb 0.00 in0.0 mm 0.00 in/hr0.0 mm/hr 0.00 in0.0 mm
04:23 AM 41.7°F5.4°C 31.3°F-0.4°C 66% Calm Calm 2.2 mph3.5 kmh 30.27 in1025.1 mb 0.00 in0.0 mm 0.00 in/hr0.0 mm/hr 0.00 in0.0 mm
04:28 AM 41.9°F5.5°C 30.6°F-0.8°C 64% Calm Calm -- 30.27 in1025.1 mb 0.00 in0.0 mm 0.00 in/hr0.0 mm/hr 0.00 in0.0 mm
04:33 AM 41.9°F5.5°C 30.2°F-1.0°C 63% Calm Calm -- 30.27 in1025.1 mb 0.00 in0.0 mm 0.00 in/hr0.0 mm/hr 0.00 in0.0 mm
04:38 AM 41.9°F5.5°C 31.0°F-0.6°C 65% Calm Calm -- 30.27 in1025.1 mb 0.00 in0.0 mm 0.00 in/hr0.0 mm/hr 0.00 in0.0 mm
04:43 AM 41.9°F5.5°C 31.0°F-0.6°C 65% Calm Calm -- 30.27 in1025.1 mb 0.00 in0.0 mm 0.00 in/hr0.0 mm/hr 0.00 in0.0 mm
04:48 AM 41.9°F5.5°C 30.2°F-1.0°C 63% 2.7 mph NNE4.3 kmh NNE 3.2 mph5.1 kmh 30.27 in1025.1 mb 0.00 in0.0 mm 0.00 in/hr0.0 mm/hr 0.00 in0.0 mm
04:53 AM 42.1°F5.6°C 29.5°F-1.4°C 61% 3.0 mph NNE4.8 kmh NNE 4.4 mph7.1 kmh 30.27 in1025.1 mb 0.00 in0.0 mm 0.00 in/hr0.0 mm/hr 0.00 in0.0 mm
04:58 AM 42.1°F5.6°C 29.5°F-1.4°C 61% 3.2 mph NNE5.1 kmh NNE 4.4 mph7.1 kmh 30.27 in1025.1 mb 0.00 in0.0 mm 0.00 in/hr0.0 mm/hr 0.00 in0.0 mm
05:03 AM 42.1°F5.6°C 29.0°F-1.7°C 59% 2.2 mph NNE3.5 kmh NNE 5.0 mph8.0 kmh 30.27 in1025.1 mb 0.00 in0.0 mm 0.00 in/hr0.0 mm/hr 0.00 in0.0 mm
05:09 AM 42.3°F5.7°C 28.7°F-1.8°C 58% Calm Calm 5.0 mph8.0 kmh 30.27 in1025.1 mb 0.00 in0.0 mm 0.00 in/hr0.0 mm/hr 0.00 in0.0 mm
05:14 AM 42.3°F5.7°C 28.7°F-1.8°C 58% Calm Calm 5.0 mph8.0 kmh 30.27 in1025.1 mb 0.00 in0.0 mm 0.00 in/hr0.0 mm/hr 0.00 in0.0 mm
05:19 AM 42.3°F5.7°C 28.7°F-1.8°C 58% 2.3 mph NE3.7 kmh NE 2.6 mph4.2 kmh 30.27 in1025.1 mb 0.00 in0.0 mm 0.00 in/hr0.0 mm/hr 0.00 in0.0 mm
05:24 AM 42.3°F5.7°C 28.7°F-1.8°C 58% 2.0 mph NE3.2 kmh NE 2.6 mph4.2 kmh 30.27 in1025.1 mb 0.00 in0.0 mm 0.00 in/hr0.0 mm/hr 0.00 in0.0 mm
05:29 AM 42.3°F5.7°C 28.3°F-2.1°C 57% Calm Calm 2.6 mph4.2 kmh 30.27 in1025.1 mb 0.00 in0.0 mm 0.00 in/hr0.0 mm/hr 0.00 in0.0 mm
05:35 AM 42.3°F5.7°C 28.7°F-1.8°C 58% 2.0 mph NE3.2 kmh NE 2.2 mph3.5 kmh 30.27 in1025.1 mb 0.00 in0.0 mm 0.00 in/hr0.0 mm/hr 0.00 in0.0 mm
05:39 AM 42.3°F5.7°C 28.7°F-1.8°C 58% Calm Calm 2.2 mph3.5 kmh 30.27 in1025.1 mb 0.00 in0.0 mm 0.00 in/hr0.0 mm/hr 0.00 in0.0 mm
05:45 AM 42.3°F5.7°C 28.7°F-1.8°C 58% Calm Calm -- 30.24 in1024.0 mb 0.00 in0.0 mm 0.00 in/hr0.0 mm/hr 0.00 in0.0 mm
05:50 AM 42.4°F5.8°C 28.4°F-2.0°C 57% Calm Calm -- 30.24 in1024.0 mb 0.00 in0.0 mm 0.00 in/hr0.0 mm/hr 0.00 in0.0 mm
05:55 AM 42.4°F5.8°C 28.4°F-2.0°C 57% Calm Calm -- 30.24 in1024.0 mb 0.00 in0.0 mm 0.00 in/hr0.0 mm/hr 0.00 in0.0 mm
06:00 AM 42.4°F5.8°C 28.4°F-2.0°C 57% Calm Calm -- 30.24 in1024.0 mb 0.00 in0.0 mm 0.00 in/hr0.0 mm/hr 0.00 in0.0 mm
06:05 AM 42.4°F5.8°C 28.8°F-1.8°C 58% Calm Calm -- 30.24 in1024.0 mb 0.00 in0.0 mm 0.00 in/hr0.0 mm/hr 0.00 in0.0 mm
06:10 AM 42.3°F5.7°C 28.3°F-2.1°C 57% Calm Calm -- 30.24 in1024.0 mb 0.00 in0.0 mm 0.00 in/hr0.0 mm/hr 0.00 in0.0 mm
06:15 AM 42.4°F5.8°C 28.4°F-2.0°C 57% 3.0 mph SE4.8 kmh SE 4.0 mph6.4 kmh 30.24 in1024.0 mb 0.00 in0.0 mm 0.00 in/hr0.0 mm/hr 0.00 in0.0 mm
06:20 AM 42.4°F5.8°C 28.4°F-2.0°C 57% Calm Calm 4.0 mph6.4 kmh 30.24 in1024.0 mb 0.00 in0.0 mm 0.00 in/hr0.0 mm/hr 0.00 in0.0 mm
06:25 AM 42.4°F5.8°C 27.9°F-2.3°C 56% Calm Calm 2.6 mph4.2 kmh 30.24 in1024.0 mb 0.00 in0.0 mm 0.00 in/hr0.0 mm/hr 0.00 in0.0 mm
06:30 AM 42.6°F5.9°C 28.1°F-2.2°C 56% Calm Calm -- 30.24 in1024.0 mb 0.00 in0.0 mm 0.00 in/hr0.0 mm/hr 0.00 in0.0 mm
06:35 AM 42.8°F6.0°C 27.8°F-2.3°C 55% 2.9 mph NE4.7 kmh NE 3.2 mph5.1 kmh 30.24 in1024.0 mb 0.00 in0.0 mm 0.00 in/hr0.0 mm/hr 0.00 in0.0 mm
06:40 AM 43.0°F6.1°C 28.0°F-2.2°C 55% 2.4 mph NNE3.9 kmh NNE 4.4 mph7.1 kmh 30.24 in1024.0 mb 0.00 in0.0 mm 0.00 in/hr0.0 mm/hr 0.00 in0.0 mm
06:45 AM 42.8°F6.0°C 27.8°F-2.3°C 55% Calm Calm 4.4 mph7.1 kmh 30.24 in1024.0 mb 0.00 in0.0 mm 0.00 in/hr0.0 mm/hr 0.00 in0.0 mm
06:51 AM 42.8°F6.0°C 27.8°F-2.3°C 55% Calm Calm -- 30.24 in1024.0 mb 0.00 in0.0 mm 0.00 in/hr0.0 mm/hr 0.00 in0.0 mm
06:56 AM 42.8°F6.0°C 27.3°F-2.6°C 54% 3.5 mph ESE5.6 kmh ESE 4.4 mph7.1 kmh 30.27 in1025.1 mb 0.00 in0.0 mm 0.00 in/hr0.0 mm/hr 0.00 in0.0 mm
07:02 AM 42.8°F6.0°C 27.3°F-2.6°C 54% 2.2 mph ESE3.5 kmh ESE 4.4 mph7.1 kmh 30.27 in1025.1 mb 0.00 in0.0 mm 0.00 in/hr0.0 mm/hr 0.00 in0.0 mm
07:07 AM 42.8°F6.0°C 27.8°F-2.3°C 55% Calm Calm 3.2 mph5.1 kmh 30.27 in1025.1 mb 0.00 in0.0 mm 0.00 in/hr0.0 mm/hr 0.00 in0.0 mm
07:13 AM 42.6°F5.9°C 27.6°F-2.4°C 55% Calm Calm -- 30.24 in1024.0 mb 0.00 in0.0 mm 0.00 in/hr0.0 mm/hr 0.00 in0.0 mm
07:18 AM 42.6°F5.9°C 27.6°F-2.4°C 55% Calm Calm -- 30.24 in1024.0 mb 0.00 in0.0 mm 0.00 in/hr0.0 mm/hr 0.00 in0.0 mm
07:23 AM 42.4°F5.8°C 27.4°F-2.6°C 55% Calm Calm -- 30.24 in1024.0 mb 0.00 in0.0 mm 0.00 in/hr0.0 mm/hr 0.00 in0.0 mm
07:28 AM 42.4°F5.8°C 27.9°F-2.3°C 56% Calm Calm -- 30.21 in1023.0 mb 0.00 in0.0 mm 0.00 in/hr0.0 mm/hr 0.00 in0.0 mm
07:33 AM 42.4°F5.8°C 27.9°F-2.3°C 56% Calm Calm -- 30.21 in1023.0 mb 0.00 in0.0 mm 0.00 in/hr0.0 mm/hr 0.00 in0.0 mm
07:38 AM 42.4°F5.8°C 27.9°F-2.3°C 56% Calm Calm -- 30.21 in1023.0 mb 0.00 in0.0 mm 0.00 in/hr0.0 mm/hr 0.00 in0.0 mm
07:43 AM 42.4°F5.8°C 27.9°F-2.3°C 56% Calm Calm -- 30.21 in1023.0 mb 0.00 in0.0 mm 0.00 in/hr0.0 mm/hr 0.00 in0.0 mm
07:48 AM 42.3°F5.7°C 28.3°F-2.1°C 57% Calm Calm -- 30.21 in1023.0 mb 0.00 in0.0 mm 0.00 in/hr0.0 mm/hr 0.00 in0.0 mm
07:53 AM 42.3°F5.7°C 28.3°F-2.1°C 57% 2.3 mph NNE3.7 kmh NNE 2.6 mph4.2 kmh 30.21 in1023.0 mb 0.00 in0.0 mm 0.00 in/hr0.0 mm/hr 0.00 in0.0 mm
07:58 AM 42.3°F5.7°C 28.7°F-1.8°C 58% 3.2 mph NNE5.1 kmh NNE 4.0 mph6.4 kmh 30.24 in1024.0 mb 0.00 in0.0 mm 0.00 in/hr0.0 mm/hr 0.00 in0.0 mm
08:03 AM 42.3°F5.7°C 29.2°F-1.6°C 59% 3.8 mph NE6.1 kmh NE 5.0 mph8.0 kmh 30.24 in1024.0 mb 0.00 in0.0 mm 0.00 in/hr0.0 mm/hr 0.00 in0.0 mm
08:08 AM 42.1°F5.6°C 29.5°F-1.4°C 61% 3.4 mph NNE5.5 kmh NNE 5.8 mph9.3 kmh 30.24 in1024.0 mb 0.00 in0.0 mm 0.00 in/hr0.0 mm/hr 0.00 in0.0 mm
08:13 AM 41.9°F5.5°C 29.3°F-1.5°C 61% 2.8 mph NE4.5 kmh NE 5.8 mph9.3 kmh 30.24 in1024.0 mb 0.00 in0.0 mm 0.00 in/hr0.0 mm/hr 0.00 in0.0 mm
08:18 AM 41.5°F5.3°C 29.4°F-1.4°C 62% 2.1 mph NE3.4 kmh NE 4.4 mph7.1 kmh 30.24 in1024.0 mb 0.00 in0.0 mm 0.00 in/hr0.0 mm/hr 0.00 in0.0 mm
08:24 AM 41.2°F5.1°C 30.4°F-0.9°C 65% Calm Calm 2.6 mph4.2 kmh 30.24 in1024.0 mb 0.00 in0.0 mm 0.00 in/hr0.0 mm/hr 0.00 in0.0 mm
08:29 AM 41.0°F5.0°C 31.0°F-0.6°C 67% Calm Calm -- 30.24 in1024.0 mb 0.00 in0.0 mm 0.00 in/hr0.0 mm/hr 0.00 in0.0 mm
08:34 AM 40.6°F4.8°C 32.2°F0.1°C 72% 1.8 mph ESE2.9 kmh ESE 3.2 mph5.1 kmh 30.24 in1024.0 mb 0.00 in0.0 mm 0.00 in/hr0.0 mm/hr 0.00 in0.0 mm
08:39 AM 40.6°F4.8°C 32.6°F0.3°C 73% 2.6 mph ESE4.2 kmh ESE 3.2 mph5.1 kmh 30.24 in1024.0 mb 0.00 in0.0 mm 0.00 in/hr0.0 mm/hr 0.00 in0.0 mm
08:44 AM 40.5°F4.7°C 34.2°F1.2°C 78% 1.8 mph ESE2.9 kmh ESE 3.2 mph5.1 kmh 30.24 in1024.0 mb 0.00 in0.0 mm 0.00 in/hr0.0 mm/hr 0.00 in0.0 mm
08:49 AM 40.5°F4.7°C 34.2°F1.2°C 78% Calm Calm 2.2 mph3.5 kmh 30.24 in1024.0 mb 0.00 in0.0 mm 0.00 in/hr0.0 mm/hr 0.00 in0.0 mm
08:54 AM 40.5°F4.7°C 34.9°F1.6°C 80% Calm Calm -- 30.24 in1024.0 mb 0.00 in0.0 mm 0.00 in/hr0.0 mm/hr 0.00 in0.0 mm
08:59 AM 40.5°F4.7°C 35.3°F1.8°C 81% Calm Calm -- 30.24 in1024.0 mb 0.00 in0.0 mm 0.00 in/hr0.0 mm/hr 0.00 in0.0 mm
09:05 AM 40.5°F4.7°C 35.6°F2.0°C 83% Calm Calm -- 30.24 in1024.0 mb 0.00 in0.0 mm 0.00 in/hr0.0 mm/hr 0.00 in0.0 mm
09:10 AM 40.8°F4.9°C 35.9°F2.2°C 83% 2.7 mph ENE4.3 kmh ENE 3.2 mph5.1 kmh 30.24 in1024.0 mb 0.00 in0.0 mm 0.00 in/hr0.0 mm/hr 0.00 in0.0 mm
09:15 AM 41.0°F5.0°C 36.1°F2.3°C 83% 2.2 mph ENE3.5 kmh ENE 3.2 mph5.1 kmh 30.24 in1024.0 mb 0.00 in0.0 mm 0.00 in/hr0.0 mm/hr 0.00 in0.0 mm
09:20 AM 41.2°F5.1°C 36.3°F2.4°C 83% Calm Calm 2.6 mph4.2 kmh 30.24 in1024.0 mb 0.00 in0.0 mm 0.00 in/hr0.0 mm/hr 0.00 in0.0 mm
09:25 AM 41.5°F5.3°C 36.6°F2.6°C 83% Calm Calm 1.8 mph2.9 kmh 30.24 in1024.0 mb 0.00 in0.0 mm 0.00 in/hr0.0 mm/hr 0.00 in0.0 mm
09:30 AM 41.7°F5.4°C 37.1°F2.8°C 84% Calm Calm -- 30.21 in1023.0 mb 0.00 in0.0 mm 0.00 in/hr0.0 mm/hr 0.00 in0.0 mm
09:36 AM 42.1°F5.6°C 37.5°F3.1°C 84% Calm Calm 2.2 mph3.5 kmh 30.21 in1023.0 mb 0.00 in0.0 mm 0.00 in/hr0.0 mm/hr 0.00 in0.0 mm
09:41 AM 42.4°F5.8°C 37.5°F3.1°C 83% Calm Calm 2.2 mph3.5 kmh 30.21 in1023.0 mb 0.00 in0.0 mm 0.00 in/hr0.0 mm/hr 0.00 in0.0 mm
09:47 AM 42.8°F6.0°C 38.2°F3.4°C 84% Calm Calm 2.6 mph4.2 kmh 30.21 in1023.0 mb 0.00 in0.0 mm 0.00 in/hr0.0 mm/hr 0.00 in0.0 mm
09:52 AM 43.0°F6.1°C 38.4°F3.6°C 84% 2.3 mph ENE3.7 kmh ENE 3.2 mph5.1 kmh 30.21 in1023.0 mb 0.00 in0.0 mm 0.00 in/hr0.0 mm/hr 0.00 in0.0 mm
09:57 AM 43.3°F6.3°C 38.7°F3.7°C 84% 2.1 mph NE3.4 kmh NE 4.0 mph6.4 kmh 30.18 in1022.0 mb 0.00 in0.0 mm 0.00 in/hr0.0 mm/hr 0.00 in0.0 mm
10:02 AM 43.5°F6.4°C 38.9°F3.8°C 84% Calm Calm 4.0 mph6.4 kmh 30.18 in1022.0 mb 0.00 in0.0 mm 0.00 in/hr0.0 mm/hr 0.00 in0.0 mm
10:08 AM 43.7°F6.5°C 39.1°F3.9°C 84% 3.9 mph NE6.3 kmh NE 5.4 mph8.7 kmh 30.18 in1022.0 mb 0.00 in0.0 mm 0.00 in/hr0.0 mm/hr 0.00 in0.0 mm
10:13 AM 44.1°F6.7°C 39.8°F4.3°C 85% Calm Calm 5.4 mph8.7 kmh 30.18 in1022.0 mb 0.00 in0.0 mm 0.00 in/hr0.0 mm/hr 0.00 in0.0 mm
10:18 AM 44.1°F6.7°C 39.4°F4.1°C 84% 3.3 mph NNE5.3 kmh NNE 4.0 mph6.4 kmh 30.18 in1022.0 mb 0.00 in0.0 mm 0.00 in/hr0.0 mm/hr 0.00 in0.0 mm
10:23 AM 44.2°F6.8°C 39.5°F4.2°C 84% Calm Calm 4.0 mph6.4 kmh 30.18 in1022.0 mb 0.00 in0.0 mm 0.00 in/hr0.0 mm/hr 0.00 in0.0 mm
10:29 AM 44.4°F6.9°C 39.7°F4.3°C 84% Calm Calm 2.6 mph4.2 kmh 30.18 in1022.0 mb 0.00 in0.0 mm 0.00 in/hr0.0 mm/hr 0.00 in0.0 mm
10:34 AM 44.6°F7.0°C 39.9°F4.4°C 84% 1.8 mph NNE2.9 kmh NNE 2.6 mph4.2 kmh 30.18 in1022.0 mb 0.00 in0.0 mm 0.00 in/hr0.0 mm/hr 0.00 in0.0 mm
10:39 AM 44.8°F7.1°C 40.1°F4.5°C 84% 3.2 mph NE5.1 kmh NE 5.0 mph8.0 kmh 30.18 in1022.0 mb 0.00 in0.0 mm 0.00 in/hr0.0 mm/hr 0.00 in0.0 mm
10:44 AM 44.8°F7.1°C 40.8°F4.9°C 86% 3.5 mph NE5.6 kmh NE 5.4 mph8.7 kmh 30.15 in1021.0 mb 0.00 in0.0 mm 0.00 in/hr0.0 mm/hr 0.00 in0.0 mm
10:49 AM 44.6°F7.0°C 40.3°F4.6°C 85% 2.2 mph NE3.5 kmh NE 5.4 mph8.7 kmh 30.15 in1021.0 mb 0.00 in0.0 mm 0.00 in/hr0.0 mm/hr 0.00 in0.0 mm
10:54 AM 44.2°F6.8°C 41.2°F5.1°C 89% 3.8 mph NE6.1 kmh NE 5.0 mph8.0 kmh 30.15 in1021.0 mb 0.00 in0.0 mm 0.00 in/hr0.0 mm/hr 0.00 in0.0 mm
10:59 AM 44.1°F6.7°C 41.4°F5.2°C 90% 2.0 mph NE3.2 kmh NE 5.0 mph8.0 kmh 30.18 in1022.0 mb 0.04 in1.0 mm 0.48 in/hr12.2 mm/hr 0.03 in0.8 mm
11:04 AM 44.1°F6.7°C 41.1°F5.1°C 89% Calm Calm 4.4 mph7.1 kmh 30.18 in1022.0 mb 0.04 in1.0 mm 0.00 in/hr0.0 mm/hr 0.03 in0.8 mm
11:09 AM 44.1°F6.7°C 41.4°F5.2°C 90% 2.7 mph NE4.3 kmh NE 4.4 mph7.1 kmh 30.18 in1022.0 mb 0.04 in1.0 mm 0.00 in/hr0.0 mm/hr 0.03 in0.8 mm
11:14 AM 44.1°F6.7°C 42.3°F5.7°C 94% 2.7 mph NE4.3 kmh NE 5.0 mph8.0 kmh 30.18 in1022.0 mb 0.04 in1.0 mm 0.00 in/hr0.0 mm/hr 0.03 in0.8 mm
11:22 AM 44.4°F6.9°C 42.6°F5.9°C 94% Calm Calm 4.0 mph6.4 kmh 30.18 in1022.0 mb 0.04 in1.0 mm 0.00 in/hr0.0 mm/hr 0.03 in0.8 mm
11:27 AM 44.6°F7.0°C 43.1°F6.2°C 95% 3.6 mph NNE5.8 kmh NNE 5.0 mph8.0 kmh 30.15 in1021.0 mb 0.00 in0.0 mm 0.00 in/hr0.0 mm/hr 0.03 in0.8 mm
11:32 AM 44.6°F7.0°C 44.0°F6.7°C 98% 5.2 mph NNE8.4 kmh NNE 6.8 mph10.9 kmh 30.15 in1021.0 mb 0.00 in0.0 mm 0.00 in/hr0.0 mm/hr 0.03 in0.8 mm
11:37 AM 44.6°F7.0°C 43.7°F6.5°C 97% 3.0 mph NNE4.8 kmh NNE 7.6 mph12.2 kmh 30.15 in1021.0 mb 0.00 in0.0 mm 0.00 in/hr0.0 mm/hr 0.03 in0.8 mm
11:42 AM 44.8°F7.1°C 43.9°F6.6°C 97% 3.9 mph NE6.3 kmh NE 7.6 mph12.2 kmh 30.12 in1020.0 mb 0.00 in0.0 mm 0.00 in/hr0.0 mm/hr 0.03 in0.8 mm
11:47 AM 45.0°F7.2°C 44.7°F7.1°C 99% 3.9 mph NE6.3 kmh NE 6.2 mph10.0 kmh 30.12 in1020.0 mb 0.00 in0.0 mm 0.00 in/hr0.0 mm/hr 0.03 in0.8 mm
11:52 AM 45.3°F7.4°C 45.3°F7.4°C 100% 3.4 mph NNE5.5 kmh NNE 6.2 mph10.0 kmh 30.12 in1020.0 mb 0.00 in0.0 mm 0.00 in/hr0.0 mm/hr 0.03 in0.8 mm
11:57 AM 45.9°F7.7°C 45.6°F7.6°C 99% 3.0 mph NE4.8 kmh NE 5.8 mph9.3 kmh 30.09 in1019.0 mb 0.00 in0.0 mm 0.00 in/hr0.0 mm/hr 0.03 in0.8 mm
12:03 PM 46.0°F7.8°C 46.0°F7.8°C 100% 5.0 mph NNE8.0 kmh NNE 5.8 mph9.3 kmh 30.09 in1019.0 mb 0.00 in0.0 mm 0.00 in/hr0.0 mm/hr 0.03 in0.8 mm
12:08 PM 46.2°F7.9°C 46.2°F7.9°C 100% 4.6 mph NE7.4 kmh NE 6.2 mph10.0 kmh 30.09 in1019.0 mb 0.00 in0.0 mm 0.00 in/hr0.0 mm/hr 0.03 in0.8 mm
12:13 PM 46.2°F7.9°C 46.2°F7.9°C 100% 6.8 mph NNE10.9 kmh NNE 8.0 mph12.9 kmh 30.12 in1020.0 mb 0.00 in0.0 mm 0.00 in/hr0.0 mm/hr 0.03 in0.8 mm
12:18 PM 46.0°F7.8°C 46.0°F7.8°C 100% 5.3 mph NE8.5 kmh NE 8.0 mph12.9 kmh 30.12 in1020.0 mb 0.00 in0.0 mm 0.00 in/hr0.0 mm/hr 0.03 in0.8 mm
12:23 PM 46.2°F7.9°C 46.2°F7.9°C 100% 5.6 mph NE9.0 kmh NE 8.0 mph12.9 kmh 30.12 in1020.0 mb 0.00 in0.0 mm 0.00 in/hr0.0 mm/hr 0.03 in0.8 mm
12:28 PM 46.0°F7.8°C 46.0°F7.8°C 100% 5.1 mph NE8.2 kmh NE 8.6 mph13.8 kmh 30.09 in1019.0 mb 0.00 in0.0 mm 0.00 in/hr0.0 mm/hr 0.03 in0.8 mm
12:33 PM 46.0°F7.8°C 46.0°F7.8°C 100% 6.0 mph NE9.7 kmh NE 8.6 mph13.8 kmh 30.09 in1019.0 mb 0.00 in0.0 mm 0.00 in/hr0.0 mm/hr 0.03 in0.8 mm
12:38 PM 46.2°F7.9°C 46.2°F7.9°C 100% 5.8 mph NE9.3 kmh NE 8.0 mph12.9 kmh 30.09 in1019.0 mb 0.00 in0.0 mm 0.00 in/hr0.0 mm/hr 0.03 in0.8 mm
12:43 PM 46.4°F8.0°C 46.4°F8.0°C 100% 4.0 mph NE6.4 kmh NE 7.6 mph12.2 kmh 30.06 in1017.9 mb 0.00 in0.0 mm 0.00 in/hr0.0 mm/hr 0.03 in0.8 mm
12:49 PM 46.6°F8.1°C 46.6°F8.1°C 100% 3.4 mph NE5.5 kmh NE 7.6 mph12.2 kmh 30.06 in1017.9 mb 0.00 in0.0 mm 0.00 in/hr0.0 mm/hr 0.03 in0.8 mm
12:53 PM 46.6°F8.1°C 46.6°F8.1°C 100% 5.6 mph NE9.0 kmh NE 6.2 mph10.0 kmh 30.06 in1017.9 mb 0.00 in0.0 mm 0.00 in/hr0.0 mm/hr 0.03 in0.8 mm
12:59 PM 46.4°F8.0°C 46.4°F8.0°C 100% 6.8 mph NE10.9 kmh NE 8.6 mph13.8 kmh 30.06 in1017.9 mb 0.00 in0.0 mm 0.00 in/hr0.0 mm/hr 0.03 in0.8 mm
01:05 PM 46.4°F8.0°C 46.4°F8.0°C 100% 4.3 mph NE6.9 kmh NE 8.6 mph13.8 kmh 30.06 in1017.9 mb 0.04 in1.0 mm 0.04 in/hr1.0 mm/hr 0.08 in2.0 mm
01:10 PM 46.4°F8.0°C 46.4°F8.0°C 100% 2.6 mph NE4.2 kmh NE 6.2 mph10.0 kmh 30.06 in1017.9 mb 0.04 in1.0 mm 0.00 in/hr0.0 mm/hr 0.08 in2.0 mm
01:15 PM 46.6°F8.1°C 46.6°F8.1°C 100% 4.3 mph NNE6.9 kmh NNE 5.8 mph9.3 kmh 30.06 in1017.9 mb 0.04 in1.0 mm 0.00 in/hr0.0 mm/hr 0.08 in2.0 mm
01:20 PM 46.4°F8.0°C 46.4°F8.0°C 100% 3.4 mph NE5.5 kmh NE 5.8 mph9.3 kmh 30.06 in1017.9 mb 0.04 in1.0 mm 0.00 in/hr0.0 mm/hr 0.08 in2.0 mm
01:25 PM 46.4°F8.0°C 46.4°F8.0°C 100% 4.6 mph NE7.4 kmh NE 5.8 mph9.3 kmh 30.06 in1017.9 mb 0.04 in1.0 mm 0.00 in/hr0.0 mm/hr 0.08 in2.0 mm
01:30 PM 46.0°F7.8°C 46.0°F7.8°C 100% 5.9 mph NE9.5 kmh NE 7.2 mph11.6 kmh 30.06 in1017.9 mb 0.00 in0.0 mm 0.00 in/hr0.0 mm/hr 0.08 in2.0 mm
01:35 PM 45.9°F7.7°C 45.9°F7.7°C 100% 4.4 mph NNE7.1 kmh NNE 7.2 mph11.6 kmh 30.06 in1017.9 mb 0.00 in0.0 mm 0.00 in/hr0.0 mm/hr 0.08 in2.0 mm
01:40 PM 45.7°F7.6°C 45.7°F7.6°C 100% 4.6 mph NNE7.4 kmh NNE 6.8 mph10.9 kmh 30.06 in1017.9 mb 0.04 in1.0 mm 0.48 in/hr12.2 mm/hr 0.12 in3.0 mm
01:45 PM 45.7°F7.6°C 45.7°F7.6°C 100% 5.2 mph NE8.4 kmh NE 6.2 mph10.0 kmh 30.03 in1016.9 mb 0.04 in1.0 mm 0.00 in/hr0.0 mm/hr 0.12 in3.0 mm
01:50 PM 45.7°F7.6°C 45.7°F7.6°C 100% Calm Calm 6.2 mph10.0 kmh 30.03 in1016.9 mb 0.04 in1.0 mm 0.00 in/hr0.0 mm/hr 0.12 in3.0 mm
01:56 PM 45.7°F7.6°C 45.7°F7.6°C 100% 3.1 mph NE5.0 kmh NE 5.8 mph9.3 kmh 30.03 in1016.9 mb 0.04 in1.0 mm 0.00 in/hr0.0 mm/hr 0.12 in3.0 mm
02:01 PM 45.9°F7.7°C 45.9°F7.7°C 100% 4.1 mph NE6.6 kmh NE 5.8 mph9.3 kmh 30.03 in1016.9 mb 0.04 in1.0 mm 0.00 in/hr0.0 mm/hr 0.12 in3.0 mm
02:06 PM 45.9°F7.7°C 45.9°F7.7°C 100% 3.7 mph NNE6.0 kmh NNE 6.8 mph10.9 kmh 30.03 in1016.9 mb 0.04 in1.0 mm 0.00 in/hr0.0 mm/hr 0.12 in3.0 mm
02:11 PM 46.0°F7.8°C 46.0°F7.8°C 100% 4.0 mph NNE6.4 kmh NNE 6.8 mph10.9 kmh 30.03 in1016.9 mb 0.04 in1.0 mm 0.00 in/hr0.0 mm/hr 0.12 in3.0 mm
02:16 PM 46.0°F7.8°C 46.0°F7.8°C 100% Calm Calm 5.8 mph9.3 kmh 30.03 in1016.9 mb 0.04 in1.0 mm 0.00 in/hr0.0 mm/hr 0.12 in3.0 mm
02:21 PM 46.2°F7.9°C 46.2°F7.9°C 100% 3.4 mph NE5.5 kmh NE 5.8 mph9.3 kmh 30.03 in1016.9 mb 0.04 in1.0 mm 0.00 in/hr0.0 mm/hr 0.12 in3.0 mm
02:27 PM 46.2°F7.9°C 46.2°F7.9°C 100% Calm Calm 5.0 mph8.0 kmh 30.03 in1016.9 mb 0.00 in0.0 mm 0.00 in/hr0.0 mm/hr 0.12 in3.0 mm
02:32 PM 46.2°F7.9°C 46.2°F7.9°C 100% 2.3 mph ENE3.7 kmh ENE 3.2 mph5.1 kmh 30.03 in1016.9 mb 0.00 in0.0 mm 0.00 in/hr0.0 mm/hr 0.12 in3.0 mm
02:37 PM 46.2°F7.9°C 46.2°F7.9°C 100% 3.1 mph ENE5.0 kmh ENE 5.0 mph8.0 kmh 30.03 in1016.9 mb 0.00 in0.0 mm 0.00 in/hr0.0 mm/hr 0.12 in3.0 mm
02:42 PM 46.4°F8.0°C 46.4°F8.0°C 100% 4.8 mph ENE7.7 kmh ENE 6.2 mph10.0 kmh 30.00 in1015.9 mb 0.00 in0.0 mm 0.00 in/hr0.0 mm/hr 0.12 in3.0 mm
02:47 PM 46.4°F8.0°C 46.4°F8.0°C 100% 2.4 mph NNE3.9 kmh NNE 6.2 mph10.0 kmh 30.00 in1015.9 mb 0.04 in1.0 mm 0.48 in/hr12.2 mm/hr 0.16 in4.1 mm
02:52 PM 46.6°F8.1°C 46.6°F8.1°C 100% 3.1 mph E5.0 kmh E 4.4 mph7.1 kmh 30.00 in1015.9 mb 0.04 in1.0 mm 0.00 in/hr0.0 mm/hr 0.16 in4.1 mm
02:57 PM 46.6°F8.1°C 46.6°F8.1°C 100% 3.8 mph E6.1 kmh E 5.4 mph8.7 kmh 29.97 in1014.9 mb 0.04 in1.0 mm 0.00 in/hr0.0 mm/hr 0.16 in4.1 mm
03:02 PM 46.6°F8.1°C 46.6°F8.1°C 100% 2.2 mph ENE3.5 kmh ENE 5.4 mph8.7 kmh 29.97 in1014.9 mb 0.04 in1.0 mm 0.00 in/hr0.0 mm/hr 0.16 in4.1 mm
03:07 PM 46.8°F8.2°C 46.8°F8.2°C 100% 2.5 mph NNE4.0 kmh NNE 5.4 mph8.7 kmh 29.97 in1014.9 mb 0.04 in1.0 mm 0.00 in/hr0.0 mm/hr 0.16 in4.1 mm
03:12 PM 46.9°F8.3°C 46.9°F8.3°C 100% 2.5 mph NNE4.0 kmh NNE 4.4 mph7.1 kmh 29.97 in1014.9 mb 0.04 in1.0 mm 0.00 in/hr0.0 mm/hr 0.16 in4.1 mm
03:18 PM 47.1°F8.4°C 47.1°F8.4°C 100% 3.4 mph NNE5.5 kmh NNE 5.0 mph8.0 kmh 29.97 in1014.9 mb 0.04 in1.0 mm 0.00 in/hr0.0 mm/hr 0.16 in4.1 mm
03:23 PM 47.1°F8.4°C 47.1°F8.4°C 100% 4.3 mph NNE6.9 kmh NNE 5.4 mph8.7 kmh 29.97 in1014.9 mb 0.04 in1.0 mm 0.00 in/hr0.0 mm/hr 0.16 in4.1 mm
03:27 PM 47.1°F8.4°C 47.1°F8.4°C 100% 4.0 mph NNE6.4 kmh NNE 6.2 mph10.0 kmh 29.97 in1014.9 mb 0.04 in1.0 mm 0.00 in/hr0.0 mm/hr 0.20 in5.1 mm
03:33 PM 47.3°F8.5°C 47.3°F8.5°C 100% 1.8 mph NE2.9 kmh NE 6.2 mph10.0 kmh 29.97 in1014.9 mb 0.04 in1.0 mm 0.00 in/hr0.0 mm/hr 0.20 in5.1 mm
03:38 PM 47.3°F8.5°C 47.3°F8.5°C 100% 1.8 mph E2.9 kmh E 6.2 mph10.0 kmh 29.97 in1014.9 mb 0.08 in2.0 mm 0.48 in/hr12.2 mm/hr 0.24 in6.1 mm
03:43 PM 47.7°F8.7°C 47.7°F8.7°C 100% 4.4 mph SE7.1 kmh SE 9.4 mph15.1 kmh 29.91 in1012.9 mb 0.08 in2.0 mm 0.00 in/hr0.0 mm/hr 0.24 in6.1 mm
03:48 PM 47.8°F8.8°C 47.8°F8.8°C 100% 2.8 mph NE4.5 kmh NE 9.4 mph15.1 kmh 29.91 in1012.9 mb 0.13 in3.3 mm 0.60 in/hr15.2 mm/hr 0.29 in7.4 mm
03:53 PM 48.0°F8.9°C 48.0°F8.9°C 100% 2.8 mph ESE4.5 kmh ESE 8.6 mph13.8 kmh 29.91 in1012.9 mb 0.13 in3.3 mm 0.00 in/hr0.0 mm/hr 0.29 in7.4 mm
03:59 PM 48.2°F9.0°C 48.2°F9.0°C 100% 2.6 mph NE4.2 kmh NE 6.2 mph10.0 kmh 29.94 in1013.9 mb 0.17 in4.3 mm 0.40 in/hr10.2 mm/hr 0.33 in8.4 mm
04:04 PM 48.6°F9.2°C 48.6°F9.2°C 100% 3.5 mph E5.6 kmh E 5.0 mph8.0 kmh 29.94 in1013.9 mb 0.17 in4.3 mm 0.00 in/hr0.0 mm/hr 0.33 in8.4 mm
04:10 PM 48.9°F9.4°C 48.9°F9.4°C 100% 3.0 mph E4.8 kmh E 5.0 mph8.0 kmh 29.94 in1013.9 mb 0.17 in4.3 mm 0.00 in/hr0.0 mm/hr 0.33 in8.4 mm
04:15 PM 49.3°F9.6°C 49.3°F9.6°C 100% 3.3 mph E5.3 kmh E 5.0 mph8.0 kmh 29.94 in1013.9 mb 0.17 in4.3 mm 0.00 in/hr0.0 mm/hr 0.33 in8.4 mm
04:20 PM 49.5°F9.7°C 49.5°F9.7°C 100% 3.3 mph E5.3 kmh E 5.0 mph8.0 kmh 29.94 in1013.9 mb 0.21 in5.3 mm 0.48 in/hr12.2 mm/hr 0.37 in9.4 mm
04:25 PM 49.8°F9.9°C 49.8°F9.9°C 100% 4.3 mph E6.9 kmh E 5.4 mph8.7 kmh 29.94 in1013.9 mb 0.21 in5.3 mm 0.00 in/hr0.0 mm/hr 0.37 in9.4 mm
04:30 PM 50.0°F10.0°C 50.0°F10.0°C 100% 3.6 mph ESE5.8 kmh ESE 5.4 mph8.7 kmh 29.91 in1012.9 mb 0.00 in0.0 mm 0.00 in/hr0.0 mm/hr 0.37 in9.4 mm
04:35 PM 50.2°F10.1°C 50.2°F10.1°C 100% 4.4 mph ESE7.1 kmh ESE 6.2 mph10.0 kmh 29.91 in1012.9 mb 0.04 in1.0 mm 0.48 in/hr12.2 mm/hr 0.41 in10.4 mm
04:40 PM 50.5°F10.3°C 50.5°F10.3°C 100% 3.3 mph E5.3 kmh E 6.2 mph10.0 kmh 29.91 in1012.9 mb 0.04 in1.0 mm 0.00 in/hr0.0 mm/hr 0.41 in10.4 mm
04:45 PM 50.9°F10.5°C 50.9°F10.5°C 100% 4.1 mph E6.6 kmh E 5.4 mph8.7 kmh 29.91 in1012.9 mb 0.04 in1.0 mm 0.00 in/hr0.0 mm/hr 0.41 in10.4 mm
04:50 PM 51.3°F10.7°C 51.3°F10.7°C 100% 5.3 mph E8.5 kmh E 7.2 mph11.6 kmh 29.91 in1012.9 mb 0.04 in1.0 mm 0.00 in/hr0.0 mm/hr 0.41 in10.4 mm
04:55 PM 51.6°F10.9°C 51.6°F10.9°C 100% 3.9 mph E6.3 kmh E 7.2 mph11.6 kmh 29.91 in1012.9 mb 0.08 in2.0 mm 0.48 in/hr12.2 mm/hr 0.45 in11.4 mm
05:00 PM 51.8°F11.0°C 51.8°F11.0°C 100% 4.4 mph ESE7.1 kmh ESE 6.2 mph10.0 kmh 29.91 in1012.9 mb 0.08 in2.0 mm 0.00 in/hr0.0 mm/hr 0.45 in11.4 mm
05:05 PM 52.2°F11.2°C 52.2°F11.2°C 100% 4.1 mph ESE6.6 kmh ESE 7.2 mph11.6 kmh 29.91 in1012.9 mb 0.08 in2.0 mm 0.00 in/hr0.0 mm/hr 0.45 in11.4 mm
05:10 PM 52.5°F11.4°C 52.5°F11.4°C 100% 5.4 mph ESE8.7 kmh ESE 7.2 mph11.6 kmh 29.88 in1011.9 mb 0.12 in3.0 mm 0.48 in/hr12.2 mm/hr 0.49 in12.4 mm
05:15 PM 53.1°F11.7°C 53.1°F11.7°C 100% 6.0 mph ESE9.7 kmh ESE 8.6 mph13.8 kmh 29.88 in1011.9 mb 0.12 in3.0 mm 0.00 in/hr0.0 mm/hr 0.49 in12.4 mm
05:21 PM 53.2°F11.8°C 53.2°F11.8°C 100% 4.9 mph ESE7.9 kmh ESE 8.6 mph13.8 kmh 29.88 in1011.9 mb 0.12 in3.0 mm 0.00 in/hr0.0 mm/hr 0.49 in12.4 mm
05:26 PM 53.4°F11.9°C 53.4°F11.9°C 100% 6.2 mph ESE10.0 kmh ESE 8.0 mph12.9 kmh 29.88 in1011.9 mb 0.17 in4.3 mm 0.60 in/hr15.2 mm/hr 0.53 in13.5 mm
05:31 PM 53.8°F12.1°C 53.8°F12.1°C 100% 6.7 mph ESE10.8 kmh ESE 9.0 mph14.5 kmh 29.88 in1011.9 mb 0.00 in0.0 mm 0.00 in/hr0.0 mm/hr 0.53 in13.5 mm
05:36 PM 54.0°F12.2°C 54.0°F12.2°C 100% 6.0 mph ESE9.7 kmh ESE 9.0 mph14.5 kmh 29.88 in1011.9 mb 0.00 in0.0 mm 0.00 in/hr0.0 mm/hr 0.53 in13.5 mm
05:41 PM 54.1°F12.3°C 54.1°F12.3°C 100% 5.4 mph ESE8.7 kmh ESE 9.0 mph14.5 kmh 29.88 in1011.9 mb 0.00 in0.0 mm 0.00 in/hr0.0 mm/hr 0.53 in13.5 mm
05:46 PM 54.3°F12.4°C 54.3°F12.4°C 100% 4.8 mph ESE7.7 kmh ESE 9.0 mph14.5 kmh 29.88 in1011.9 mb 0.00 in0.0 mm 0.00 in/hr0.0 mm/hr 0.53 in13.5 mm
05:51 PM 54.5°F12.5°C 54.5°F12.5°C 100% 6.5 mph SE10.5 kmh SE 7.2 mph11.6 kmh 29.88 in1011.9 mb 0.00 in0.0 mm 0.00 in/hr0.0 mm/hr 0.53 in13.5 mm
05:56 PM 54.9°F12.7°C 54.9°F12.7°C 100% 5.2 mph SE8.4 kmh SE 7.2 mph11.6 kmh 29.91 in1012.9 mb 0.04 in1.0 mm 0.48 in/hr12.2 mm/hr 0.57 in14.5 mm
06:01 PM 55.2°F12.9°C 55.2°F12.9°C 100% 5.5 mph SSE8.9 kmh SSE 7.2 mph11.6 kmh 29.91 in1012.9 mb 0.04 in1.0 mm 0.00 in/hr0.0 mm/hr 0.57 in14.5 mm
06:06 PM 55.6°F13.1°C 55.6°F13.1°C 100% 6.1 mph SE9.8 kmh SE 9.8 mph15.8 kmh 29.91 in1012.9 mb 0.04 in1.0 mm 0.00 in/hr0.0 mm/hr 0.57 in14.5 mm
06:12 PM 55.8°F13.2°C 55.8°F13.2°C 100% 4.8 mph SE7.7 kmh SE 9.8 mph15.8 kmh 29.88 in1011.9 mb 0.04 in1.0 mm 0.00 in/hr0.0 mm/hr 0.57 in14.5 mm
06:17 PM 55.8°F13.2°C 55.8°F13.2°C 100% 5.9 mph ESE9.5 kmh ESE 7.6 mph12.2 kmh 29.88 in1011.9 mb 0.08 in2.0 mm 0.48 in/hr12.2 mm/hr 0.62 in15.7 mm
06:23 PM 56.3°F13.5°C 56.3°F13.5°C 100% 7.1 mph SE11.4 kmh SE 10.8 mph17.4 kmh 29.88 in1011.9 mb 0.08 in2.0 mm 0.00 in/hr0.0 mm/hr 0.62 in15.7 mm
06:28 PM 56.5°F13.6°C 56.5°F13.6°C 100% 5.8 mph SE9.3 kmh SE 10.8 mph17.4 kmh 29.85 in1010.8 mb 0.00 in0.0 mm 0.00 in/hr0.0 mm/hr 0.62 in15.7 mm
06:33 PM 56.7°F13.7°C 56.7°F13.7°C 100% 6.9 mph SE11.1 kmh SE 9.8 mph15.8 kmh 29.85 in1010.8 mb 0.04 in1.0 mm 0.48 in/hr12.2 mm/hr 0.66 in16.8 mm
06:38 PM 56.8°F13.8°C 56.8°F13.8°C 100% 8.3 mph SE13.4 kmh SE 13.0 mph20.9 kmh 29.85 in1010.8 mb 0.04 in1.0 mm 0.00 in/hr0.0 mm/hr 0.66 in16.8 mm
06:43 PM 57.2°F14.0°C 57.2°F14.0°C 100% 9.5 mph SE15.3 kmh SE 13.0 mph20.9 kmh 29.85 in1010.8 mb 0.04 in1.0 mm 0.00 in/hr0.0 mm/hr 0.66 in16.8 mm
06:48 PM 57.2°F14.0°C 57.2°F14.0°C 100% 6.8 mph SE10.9 kmh SE 17.0 mph27.4 kmh 29.85 in1010.8 mb 0.04 in1.0 mm 0.00 in/hr0.0 mm/hr 0.66 in16.8 mm
06:53 PM 57.4°F14.1°C 57.4°F14.1°C 100% 8.6 mph SE13.8 kmh SE 17.0 mph27.4 kmh 29.85 in1010.8 mb 0.04 in1.0 mm 0.00 in/hr0.0 mm/hr 0.66 in16.8 mm
06:58 PM 57.4°F14.1°C 57.4°F14.1°C 100% 5.7 mph SE9.2 kmh SE 14.8 mph23.8 kmh 29.83 in1010.2 mb 0.12 in3.0 mm 0.96 in/hr24.4 mm/hr 0.70 in17.8 mm
07:03 PM 57.4°F14.1°C 57.4°F14.1°C 100% 6.6 mph SE10.6 kmh SE 14.8 mph23.8 kmh 29.83 in1010.2 mb 0.17 in4.3 mm 0.05 in/hr1.3 mm/hr 0.78 in19.8 mm
07:08 PM 57.6°F14.2°C 57.6°F14.2°C 100% 5.6 mph SSE9.0 kmh SSE 15.2 mph24.5 kmh 29.83 in1010.2 mb 0.17 in4.3 mm 0.00 in/hr0.0 mm/hr 0.78 in19.8 mm
07:13 PM 57.7°F14.3°C 57.7°F14.3°C 100% 7.8 mph SE12.6 kmh SE 15.2 mph24.5 kmh 29.83 in1010.2 mb 0.21 in5.3 mm 0.48 in/hr12.2 mm/hr 0.82 in20.8 mm
07:18 PM 57.9°F14.4°C 57.9°F14.4°C 100% 7.8 mph SE12.6 kmh SE 13.0 mph20.9 kmh 29.83 in1010.2 mb 0.21 in5.3 mm 0.00 in/hr0.0 mm/hr 0.82 in20.8 mm
07:23 PM 58.1°F14.5°C 58.1°F14.5°C 100% 7.0 mph SE11.3 kmh SE 13.0 mph20.9 kmh 29.83 in1010.2 mb 0.25 in6.4 mm 0.48 in/hr12.2 mm/hr 0.87 in22.1 mm
07:28 PM 58.1°F14.5°C 58.1°F14.5°C 100% 7.5 mph SE12.1 kmh SE 12.6 mph20.3 kmh 29.83 in1010.2 mb 0.00 in0.0 mm 0.00 in/hr0.0 mm/hr 0.87 in22.1 mm
07:33 PM 58.3°F14.6°C 58.3°F14.6°C 100% 7.1 mph SE11.4 kmh SE 12.6 mph20.3 kmh 29.83 in1010.2 mb 0.04 in1.0 mm 0.48 in/hr12.2 mm/hr 0.91 in23.1 mm
07:38 PM 58.5°F14.7°C 58.5°F14.7°C 100% 7.4 mph SE11.9 kmh SE 15.2 mph24.5 kmh 29.83 in1010.2 mb 0.04 in1.0 mm 0.00 in/hr0.0 mm/hr 0.91 in23.1 mm
07:43 PM 58.5°F14.7°C 58.5°F14.7°C 100% 7.9 mph ESE12.7 kmh ESE 15.2 mph24.5 kmh 29.80 in1009.1 mb 0.04 in1.0 mm 0.00 in/hr0.0 mm/hr 0.91 in23.1 mm
07:48 PM 58.8°F14.9°C 58.8°F14.9°C 100% 7.1 mph SSE11.4 kmh SSE 13.4 mph21.6 kmh 29.80 in1009.1 mb 0.04 in1.0 mm 0.00 in/hr0.0 mm/hr 0.91 in23.1 mm
07:54 PM 59.0°F15.0°C 59.0°F15.0°C 100% 8.1 mph SE13.0 kmh SE 15.6 mph25.1 kmh 29.80 in1009.1 mb 0.04 in1.0 mm 0.00 in/hr0.0 mm/hr 0.91 in23.1 mm
07:59 PM 59.0°F15.0°C 59.0°F15.0°C 100% 7.0 mph S11.3 kmh S 13.0 mph20.9 kmh 29.83 in1010.2 mb 0.04 in1.0 mm 0.00 in/hr0.0 mm/hr 0.91 in23.1 mm
08:04 PM 59.4°F15.2°C 59.4°F15.2°C 100% 6.7 mph S10.8 kmh S 15.2 mph24.5 kmh 29.83 in1010.2 mb 0.04 in1.0 mm 0.00 in/hr0.0 mm/hr 0.91 in23.1 mm
08:09 PM 59.4°F15.2°C 59.4°F15.2°C 100% 7.1 mph SSE11.4 kmh SSE 15.2 mph24.5 kmh 29.83 in1010.2 mb 0.04 in1.0 mm 0.00 in/hr0.0 mm/hr 0.91 in23.1 mm
08:14 PM 59.7°F15.4°C 59.7°F15.4°C 100% 9.1 mph S14.6 kmh S 15.2 mph24.5 kmh 29.80 in1009.1 mb 0.08 in2.0 mm 0.48 in/hr12.2 mm/hr 0.95 in24.1 mm
08:19 PM 59.7°F15.4°C 59.7°F15.4°C 100% 8.1 mph S13.0 kmh S 14.4 mph23.2 kmh 29.80 in1009.1 mb 0.08 in2.0 mm 0.00 in/hr0.0 mm/hr 0.95 in24.1 mm
08:24 PM 59.9°F15.5°C 59.9°F15.5°C 100% 9.5 mph SE15.3 kmh SE 15.6 mph25.1 kmh 29.80 in1009.1 mb 0.08 in2.0 mm 0.00 in/hr0.0 mm/hr 0.95 in24.1 mm
08:29 PM 59.9°F15.5°C 59.9°F15.5°C 100% 7.9 mph SSE12.7 kmh SSE 15.6 mph25.1 kmh 29.77 in1008.1 mb 0.00 in0.0 mm 0.00 in/hr0.0 mm/hr 0.95 in24.1 mm
08:36 PM 59.9°F15.5°C 59.9°F15.5°C 100% 5.4 mph SSE8.7 kmh SSE 15.6 mph25.1 kmh 29.77 in1008.1 mb 0.04 in1.0 mm 0.34 in/hr8.6 mm/hr 0.99 in25.1 mm
08:41 PM 60.1°F15.6°C 60.1°F15.6°C 100% 5.4 mph SSE8.7 kmh SSE 8.0 mph12.9 kmh 29.77 in1008.1 mb 0.08 in2.0 mm 0.48 in/hr12.2 mm/hr 1.03 in26.2 mm
08:46 PM 60.1°F15.6°C 60.1°F15.6°C 100% 6.2 mph SE10.0 kmh SE 8.6 mph13.8 kmh 29.77 in1008.1 mb 0.13 in3.3 mm 0.60 in/hr15.2 mm/hr 1.07 in27.2 mm
08:51 PM 60.3°F15.7°C 60.3°F15.7°C 100% 5.1 mph SSE8.2 kmh SSE 8.6 mph13.8 kmh 29.77 in1008.1 mb 0.21 in5.3 mm 0.96 in/hr24.4 mm/hr 1.16 in29.5 mm
08:56 PM 60.3°F15.7°C 60.3°F15.7°C 100% 5.4 mph SSE8.7 kmh SSE 14.8 mph23.8 kmh 29.77 in1008.1 mb 0.25 in6.4 mm 0.48 in/hr12.2 mm/hr 1.20 in30.5 mm
09:01 PM 60.4°F15.8°C 60.4°F15.8°C 100% 5.8 mph SSW9.3 kmh SSW 11.6 mph18.7 kmh 29.77 in1008.1 mb 0.25 in6.4 mm 0.00 in/hr0.0 mm/hr 1.20 in30.5 mm
09:06 PM 60.8°F16.0°C 60.8°F16.0°C 100% 7.3 mph SSE11.7 kmh SSE 9.8 mph15.8 kmh 29.77 in1008.1 mb 0.29 in7.4 mm 0.48 in/hr12.2 mm/hr 1.24 in31.5 mm
09:11 PM 61.0°F16.1°C 61.0°F16.1°C 100% 5.1 mph SW8.2 kmh SW 9.8 mph15.8 kmh 29.83 in1010.2 mb 0.33 in8.4 mm 0.48 in/hr12.2 mm/hr 1.28 in32.5 mm
09:17 PM 61.0°F16.1°C 61.0°F16.1°C 100% 3.8 mph SE6.1 kmh SE 7.2 mph11.6 kmh 29.83 in1010.2 mb 0.33 in8.4 mm 0.00 in/hr0.0 mm/hr 1.28 in32.5 mm
09:22 PM 61.2°F16.2°C 61.2°F16.2°C 100% 7.8 mph SSW12.6 kmh SSW 14.8 mph23.8 kmh 29.83 in1010.2 mb 0.37 in9.4 mm 0.48 in/hr12.2 mm/hr 1.32 in33.5 mm
09:27 PM 61.2°F16.2°C 61.2°F16.2°C 100% 5.5 mph SSE8.9 kmh SSE 14.8 mph23.8 kmh 29.77 in1008.1 mb 0.00 in0.0 mm 0.00 in/hr0.0 mm/hr 1.32 in33.5 mm
09:32 PM 61.3°F16.3°C 61.3°F16.3°C 100% 3.7 mph SSE6.0 kmh SSE 7.6 mph12.2 kmh 29.77 in1008.1 mb 0.00 in0.0 mm 0.00 in/hr0.0 mm/hr 1.32 in33.5 mm
09:37 PM 61.3°F16.3°C 61.3°F16.3°C 100% 6.5 mph S10.5 kmh S 11.6 mph18.7 kmh 29.77 in1008.1 mb 0.00 in0.0 mm 0.00 in/hr0.0 mm/hr 1.32 in33.5 mm
09:42 PM 61.5°F16.4°C 61.5°F16.4°C 100% 6.3 mph SSE10.1 kmh SSE 11.6 mph18.7 kmh 29.77 in1008.1 mb 0.00 in0.0 mm 0.00 in/hr0.0 mm/hr 1.32 in33.5 mm
09:47 PM 61.7°F16.5°C 61.7°F16.5°C 100% 5.3 mph S8.5 kmh S 10.8 mph17.4 kmh 29.77 in1008.1 mb 0.00 in0.0 mm 0.00 in/hr0.0 mm/hr 1.32 in33.5 mm
09:52 PM 61.9°F16.6°C 61.9°F16.6°C 100% 5.7 mph S9.2 kmh S 12.6 mph20.3 kmh 29.77 in1008.1 mb 0.00 in0.0 mm 0.00 in/hr0.0 mm/hr 1.32 in33.5 mm
09:57 PM 61.9°F16.6°C 61.9°F16.6°C 100% 4.2 mph SW6.8 kmh SW 12.6 mph20.3 kmh 29.77 in1008.1 mb 0.00 in0.0 mm 0.00 in/hr0.0 mm/hr 1.32 in33.5 mm
10:02 PM 61.9°F16.6°C 61.9°F16.6°C 100% 3.7 mph SW6.0 kmh SW 10.8 mph17.4 kmh 29.77 in1008.1 mb 0.00 in0.0 mm 0.00 in/hr0.0 mm/hr 1.32 in33.5 mm
10:10 PM 62.1°F16.7°C 62.1°F16.7°C 100% 4.4 mph S7.1 kmh S 8.0 mph12.9 kmh 29.77 in1008.1 mb 0.00 in0.0 mm 0.00 in/hr0.0 mm/hr 1.32 in33.5 mm
10:15 PM 62.2°F16.8°C 62.2°F16.8°C 100% 7.7 mph SSE12.4 kmh SSE 11.2 mph18.0 kmh 29.77 in1008.1 mb 0.00 in0.0 mm 0.00 in/hr0.0 mm/hr 1.32 in33.5 mm
10:21 PM 62.4°F16.9°C 62.4°F16.9°C 100% 5.9 mph SSE9.5 kmh SSE 11.2 mph18.0 kmh 29.77 in1008.1 mb 0.00 in0.0 mm 0.00 in/hr0.0 mm/hr 1.32 in33.5 mm
10:26 PM 62.6°F17.0°C 62.6°F17.0°C 100% 6.6 mph S10.6 kmh S 11.2 mph18.0 kmh 29.77 in1008.1 mb 0.00 in0.0 mm 0.00 in/hr0.0 mm/hr 1.32 in33.5 mm
10:31 PM 62.6°F17.0°C 62.6°F17.0°C 100% 6.1 mph S9.8 kmh S 12.6 mph20.3 kmh 29.77 in1008.1 mb 0.00 in0.0 mm 0.00 in/hr0.0 mm/hr 1.32 in33.5 mm
10:36 PM 62.6°F17.0°C 62.6°F17.0°C 100% 7.0 mph S11.3 kmh S 12.6 mph20.3 kmh 29.77 in1008.1 mb 0.00 in0.0 mm 0.00 in/hr0.0 mm/hr 1.32 in33.5 mm
10:41 PM 62.6°F17.0°C 62.6°F17.0°C 100% 8.9 mph S14.3 kmh S 14.4 mph23.2 kmh 29.74 in1007.1 mb 0.00 in0.0 mm 0.00 in/hr0.0 mm/hr 1.32 in33.5 mm
10:46 PM 62.6°F17.0°C 62.6°F17.0°C 100% 5.5 mph S8.9 kmh S 14.4 mph23.2 kmh 29.74 in1007.1 mb 0.00 in0.0 mm 0.00 in/hr0.0 mm/hr 1.32 in33.5 mm
10:51 PM 62.6°F17.0°C 62.6°F17.0°C 100% 4.9 mph S7.9 kmh S 11.6 mph18.7 kmh 29.74 in1007.1 mb 0.00 in0.0 mm 0.00 in/hr0.0 mm/hr 1.32 in33.5 mm
10:56 PM 62.6°F17.0°C 62.6°F17.0°C 100% 6.1 mph S9.8 kmh S 9.4 mph15.1 kmh 29.74 in1007.1 mb 0.00 in0.0 mm 0.00 in/hr0.0 mm/hr 1.32 in33.5 mm
11:02 PM 62.4°F16.9°C 62.4°F16.9°C 100% 5.1 mph SSE8.2 kmh SSE 9.4 mph15.1 kmh 29.74 in1007.1 mb 0.00 in0.0 mm 0.00 in/hr0.0 mm/hr 1.32 in33.5 mm
11:07 PM 62.4°F16.9°C 62.4°F16.9°C 100% 4.9 mph SSE7.9 kmh SSE 7.2 mph11.6 kmh 29.74 in1007.1 mb 0.00 in0.0 mm 0.00 in/hr0.0 mm/hr 1.32 in33.5 mm
11:12 PM 62.4°F16.9°C 62.4°F16.9°C 100% 4.5 mph S7.2 kmh S 7.2 mph11.6 kmh 29.74 in1007.1 mb 0.00 in0.0 mm 0.00 in/hr0.0 mm/hr 1.32 in33.5 mm
11:17 PM 62.6°F17.0°C 62.6°F17.0°C 100% 4.4 mph SW7.1 kmh SW 6.2 mph10.0 kmh 29.74 in1007.1 mb 0.00 in0.0 mm 0.00 in/hr0.0 mm/hr 1.32 in33.5 mm
11:22 PM 62.6°F17.0°C 62.6°F17.0°C 100% 3.4 mph WSW5.5 kmh WSW 7.2 mph11.6 kmh 29.74 in1007.1 mb 0.00 in0.0 mm 0.00 in/hr0.0 mm/hr 1.32 in33.5 mm
11:27 PM 62.6°F17.0°C 62.6°F17.0°C 100% 5.4 mph S8.7 kmh S 7.2 mph11.6 kmh 29.74 in1007.1 mb 0.00 in0.0 mm 0.00 in/hr0.0 mm/hr 1.32 in33.5 mm
11:32 PM 62.8°F17.1°C 62.8°F17.1°C 100% 4.7 mph SW7.6 kmh SW 7.2 mph11.6 kmh 29.74 in1007.1 mb 0.00 in0.0 mm 0.00 in/hr0.0 mm/hr 1.32 in33.5 mm
11:37 PM 62.8°F17.1°C 62.8°F17.1°C 100% 5.3 mph SW8.5 kmh SW 8.6 mph13.8 kmh 29.74 in1007.1 mb 0.00 in0.0 mm 0.00 in/hr0.0 mm/hr 1.32 in33.5 mm
11:43 PM 63.0°F17.2°C 63.0°F17.2°C 100% 4.5 mph SW7.2 kmh SW 8.6 mph13.8 kmh 29.77 in1008.1 mb 0.00 in0.0 mm 0.00 in/hr0.0 mm/hr 1.32 in33.5 mm
11:48 PM 63.0°F17.2°C 63.0°F17.2°C 100% 5.6 mph SW9.0 kmh SW 8.6 mph13.8 kmh 29.77 in1008.1 mb 0.00 in0.0 mm 0.00 in/hr0.0 mm/hr 1.32 in33.5 mm
11:53 PM 63.0°F17.2°C 63.0°F17.2°C 100% 7.8 mph W12.6 kmh W 14.8 mph23.8 kmh 29.77 in1008.1 mb 0.00 in0.0 mm 0.00 in/hr0.0 mm/hr 1.32 in33.5 mm
11:58 PM 63.0°F17.2°C 63.0°F17.2°C 100% 4.9 mph S7.9 kmh S 14.8 mph23.8 kmh 29.74 in1007.1 mb 0.00 in0.0 mm 0.00 in/hr0.0 mm/hr 1.32 in33.5 mm